x

Western Caribbean - 195 Nm Wsw Of Negril Jamiaca (42057) Wave Buoy

5:50am - Sat 13th Feb 2016 All times are UTC.

  • Sig Wave height 6.9ft
  • Swell Direction
  • Peak Period 8s
  • Average Period 6s
  • Wind
    18mph, 22mph gusts
  • Sea Temp 81°f
  • 空気 Temp 78°f
  • Sea Pressure 1015.5mb

More Historic Weather Station data

Upgrade to MSW Pro to gain access to the past 30 days of data for over 8000 Wavebouys and Weather Stations around the globe.

Join Pro

Comparision Forecast

View Surf forecast
   
Sat 02/13 5:50am 7ft 8s 6s 18 22 mph 1015.5mb 81f 78f
4:50am 7.5ft 7s 6s 16 18 mph 1015.9mb 81f 79f
3:50am 7ft 8s 6s 20 25 mph 1016.1mb 81f 80f
2:50am 7ft 7s 6s 18 22 mph 1016.2mb 81f 80f
1:50am 7ft 7s 6s 20 25 mph 1015.9mb 81f 80f
12:50am 8ft 8s 6s 20 25 mph 1015.4mb 81f 80f
Fri 02/12 11:50pm 7ft 8s 6s 22 25 mph 1015.1mb 81f 80f
10:50pm 7.5ft 8s 6s 20 25 mph 1014.9mb 81f 80f
9:50pm 7ft 8s 6s 20 22 mph 1015mb 81f 79f
8:50pm 8ft 8s 6s 20 22 mph 1014.9mb 81f 80f
7:50pm 7ft 8s 6s 20 22 mph 1015.3mb 81f 80f
6:50pm 8ft 8s 6s 20 22 mph 1016.1mb 81f 80f
5:50pm 8ft 8s 6s 20 25 mph 1016.9mb 81f 80f
4:50pm 8ft 8s 6s 22 25 mph 1017.8mb 81f 80f
3:50pm 8ft 8s 6s 20 25 mph 1018.5mb 81f 80f
2:50pm 8.5ft 8s 6s 22 25 mph 1018.5mb 81f 79f
1:50pm 8ft 8s 6s 22 27 mph 1017.9mb 81f 79f
12:50pm 8.5ft 8s 6s 22 27 mph 1017.4mb 81f 79f
11:50am 8.5ft 8s 6s 25 29 mph 1016.9mb 81f 79f
10:50am 8ft 8s 6s 22 27 mph 1016.5mb 81f 79f
9:50am 8ft 8s 6s 22 27 mph 1016.1mb 81f 79f
8:50am 8ft 8s 6s 22 27 mph 1016mb 81f 78f
7:50am 7.5ft 8s 6s 22 27 mph 1016.2mb 81f 79f
6:50am 8.5ft 8s 6s 22 27 mph 1016.9mb 81f 79f
5:50am 8.5ft 9s 6s 22 29 mph 1017.4mb 81f 79f
4:50am 8.5ft 8s 6s 22 27 mph 1018.1mb 81f 79f
3:50am 9ft 8s 6s 22 27 mph 1018.5mb 81f 79f
2:50am 9.5ft 8s 6s 25 29 mph 1018.4mb 81f 78f
1:50am 8.5ft 8s 6s 25 31 mph 1018mb 81f 78f
12:50am 9ft 8s 6s 25 29 mph 1017.5mb 81f 78f
Thu 02/11 11:50pm 9ft 8s 6s 25 29 mph 1017.3mb 81f 78f
10:50pm 9.5ft 7s 6s 25 29 mph 1017.1mb 81f 79f
9:50pm 8ft 7s 6s 25 29 mph 1016.7mb 81f 79f
8:50pm 8ft 7s 6s 25 29 mph 1016.2mb 81f 79f
7:50pm 7ft 7s 5s 22 27 mph 1016.5mb 81f 78f
6:50pm 7ft 7s 6s 22 27 mph 1017mb 81f 79f
5:50pm 7ft 7s 6s 20 25 mph 1017.9mb 81f 79f
4:50pm 8ft 7s 6s 20 22 mph 1018.5mb 81f 79f
3:50pm 7ft 7s 6s 18 22 mph 1019.5mb 81f 79f
2:50pm 8ft 7s 6s 20 22 mph 1019.3mb 81f 79f
1:50pm 8ft 7s 6s 20 25 mph 1019.3mb 81f 79f
12:50pm 8ft 7s 6s 22 27 mph 1018.9mb 81f 78f
11:50am 8.5ft 7s 6s 25 29 mph 1018.2mb 81f 78f
10:50am 8ft 7s 6s 22 27 mph 1018.2mb 81f 78f
9:50am 8ft 6s 6s 25 29 mph 1017.7mb 81f 78f
8:50am 7ft 6s 6s 25 29 mph 1017.3mb 81f 78f
7:50am 8ft 7s 6s 25 29 mph 1017.5mb 81f 78f
6:50am 8ft 7s 6s 22 27 mph 1018.3mb 81f 78f
5:50am 8ft 6s 6s 22 29 mph 1019.1mb 81f 78f
4:50am 8ft 7s 6s 22 27 mph 1019.8mb 81f 78f
3:50am 9ft 7s 6s 25 29 mph 1020.1mb 81f 78f
2:50am 9ft 8s 6s 25 31 mph 1020.2mb 81f 78f
1:50am 8ft 7s 6s 27 31 mph 1019.6mb 81f 78f
12:50am 8ft 7s 6s 25 29 mph 1019.4mb 81f 78f
Wed 02/10 11:50pm 8.5ft 8s 6s 22 29 mph 1018.9mb 81f 77f
10:50pm 9ft 8s 6s 25 29 mph 1018.4mb 81f 76f
9:50pm 7ft 8s 6s 25 29 mph 1018.2mb 81f 76f
8:50pm 8ft 7s 6s 25 29 mph 1018.2mb 81f 76f
7:50pm 7ft 6s 5s 22 25 mph 1018.1mb 81f 76f
6:50pm 7ft 7s 5s 22 27 mph 1018.8mb 81f 76f
5:50pm 6ft 7s 5s 20 27 mph 1019.5mb 81f 78f
4:50pm 6.5ft 7s 5s 22 27 mph 1019.8mb 81f 79f
3:50pm 6.5ft 7s 6s 22 27 mph 1020.6mb 81f 79f
2:50pm 7ft 7s 6s 25 29 mph 1020.6mb 81f 77f
1:50pm 6.5ft 8s 5s 20 25 mph 1020.2mb 81f 79f
12:50pm 7ft 7s 6s 22 25 mph 1019.4mb 81f 79f
10:50am 6.5ft 8s 6s 25 29 mph 1018mb 81f 78f
9:50am 6.5ft 6s 6s 20 25 mph 1017.6mb 81f 78f
8:50am 7ft 8s 6s 20 25 mph 1017.4mb 81f 78f
7:50am 7ft 6s 6s 22 27 mph 1017.3mb 81f 78f
6:50am 7ft 7s 6s 22 27 mph 1018mb 81f 78f
5:50am 6ft 6s 5s 25 29 mph 1017.9mb 81f 79f
4:50am 6ft 6s 5s 22 27 mph 1018.7mb 81f 78f
3:50am 5.5ft 6s 5s 22 27 mph 1019.1mb 81f 78f
2:50am 6ft 6s 5s 22 25 mph 1019.3mb 81f 78f
1:50am 6ft 6s 5s 22 27 mph 1018.9mb 81f 78f
12:50am 6.5ft 6s 5s 20 25 mph 1018.2mb 81f 78f
Tue 02/09 11:50pm 6ft 6s 5s 22 27 mph 1017.6mb 81f 78f
10:50pm 6ft 6s 5s 22 27 mph 1017mb 81f 78f
9:50pm 5.5ft 6s 5s 20 25 mph 1016.6mb 81f 78f
8:50pm 6.5ft 6s 5s 20 25 mph 1016.7mb 81f 77f
7:50pm 7ft 6s 6s 22 27 mph 1016.8mb 81f 77f
6:50pm 6ft 6s 5s 22 29 mph 1017.4mb 81f 77f
5:50pm 6ft 6s 5s 25 29 mph 1018.2mb 81f 77f
4:50pm 6ft 6s 5s 22 27 mph 1019.2mb 81f 77f
3:50pm 6ft 6s 5s 22 27 mph 1019.9mb 81f 77f
2:50pm 6ft 7s 5s 20 25 mph 1019.8mb 81f 77f
1:50pm 6.5ft 7s 6s 22 27 mph 1019.4mb 81f 77f
12:50pm 6ft 7s 6s 22 25 mph 1018.4mb 81f 77f
11:50am 6ft 7s 5s 20 25 mph 1017.7mb 81f 77f
10:50am 7ft 7s 6s 22 29 mph 1017.2mb 81f 77f
9:50am 7ft 6s 6s 22 27 mph 1016.6mb 81f 77f
8:50am 7.5ft 7s 6s 25 31 mph 1016.1mb 81f 77f
7:50am 8.5ft 7s 6s 25 29 mph 1016.1mb 81f 77f